createdAt,value
2019-04-29T00:01:27.255Z,24.43
2019-04-29T00:03:56.799Z,25.53
2019-04-29T00:06:26.405Z,25.43
2019-04-29T00:08:55.982Z,25.37
2019-04-29T00:11:25.635Z,27.30
2019-04-29T00:13:55.440Z,24.77
2019-04-29T00:16:43.999Z,24.73
2019-04-29T00:19:37.386Z,23.73
2019-04-29T00:22:07.057Z,24.77
2019-04-29T00:24:36.658Z,25.13
2019-04-29T00:27:06.385Z,27.10
2019-04-29T00:29:35.985Z,26.60
2019-04-29T00:32:06.114Z,25.00
2019-04-29T00:34:35.523Z,25.30
2019-04-29T00:37:11.759Z,26.30
2019-04-29T00:39:59.106Z,24.20
2019-04-29T00:42:45.818Z,24.70
2019-04-29T00:45:15.755Z,27.07
2019-04-29T00:47:45.544Z,22.97
2019-04-29T00:50:15.443Z,26.40
2019-04-29T00:52:45.026Z,25.27
2019-04-29T00:55:17.100Z,24.27
2019-04-29T00:57:46.531Z,26.10
2019-04-29T01:00:24.793Z,25.87
2019-04-29T01:02:54.133Z,26.63
2019-04-29T01:05:23.566Z,26.93
2019-04-29T01:07:53.431Z,26.93
2019-04-29T01:10:23.011Z,26.97
2019-04-29T01:12:52.637Z,25.83
2019-04-29T01:15:22.138Z,26.40
2019-04-29T01:17:51.703Z,26.27
2019-04-29T01:20:21.354Z,26.97
2019-04-29T01:22:50.891Z,27.07
2019-04-29T01:25:20.467Z,28.40
2019-04-29T01:28:05.548Z,27.53
2019-04-29T01:31:24.850Z,27.67
2019-04-29T01:33:58.177Z,28.70
2019-04-29T01:36:36.097Z,29.57
2019-04-29T01:39:08.933Z,28.60
2019-04-29T01:41:44.734Z,29.00
2019-04-29T01:44:14.817Z,28.77
2019-04-29T01:46:44.306Z,31.83
2019-04-29T01:49:13.801Z,32.83
2019-04-29T01:51:43.200Z,31.97
2019-04-29T01:54:12.665Z,35.13
2019-04-29T01:56:42.138Z,30.13
2019-04-29T01:59:11.515Z,30.93
2019-04-29T02:01:41.081Z,32.67
2019-04-29T02:04:10.518Z,32.70
2019-04-29T02:06:39.910Z,30.73
2019-04-29T02:09:13.377Z,33.10
2019-04-29T02:11:42.822Z,31.80
2019-04-29T02:14:12.390Z,31.90
2019-04-29T02:16:41.822Z,29.60
2019-04-29T02:19:11.297Z,32.70
2019-04-29T02:21:42.646Z,30.53
2019-04-29T02:24:17.575Z,33.63
2019-04-29T02:26:47.085Z,30.60
2019-04-29T02:29:16.817Z,30.87
2019-04-29T02:31:47.700Z,32.90
2019-04-29T02:34:17.062Z,31.17
2019-04-29T02:36:46.483Z,31.93
2019-04-29T02:39:34.787Z,34.63
2019-04-29T02:42:26.858Z,32.47
2019-04-29T02:44:59.023Z,32.40
2019-04-29T02:47:28.643Z,31.93
2019-04-29T02:49:58.105Z,33.03
2019-04-29T02:52:27.752Z,31.80
2019-04-29T02:54:59.870Z,33.27
2019-04-29T02:57:37.638Z,33.57
2019-04-29T03:00:39.220Z,32.63
2019-04-29T03:03:15.062Z,34.83
2019-04-29T03:05:48.140Z,33.10
2019-04-29T03:08:17.632Z,36.77
2019-04-29T03:10:47.228Z,35.17
2019-04-29T03:13:16.966Z,35.23
2019-04-29T03:15:46.607Z,35.57
2019-04-29T03:18:16.537Z,34.33
2019-04-29T03:21:03.613Z,33.37
2019-04-29T03:23:33.586Z,34.93
2019-04-29T03:26:03.132Z,34.50
2019-04-29T03:28:32.595Z,36.47
2019-04-29T03:31:02.199Z,34.30
2019-04-29T03:33:31.848Z,35.43
2019-04-29T03:36:01.312Z,35.40
2019-04-29T03:38:31.229Z,34.93
2019-04-29T03:41:00.603Z,34.43
2019-04-29T03:43:30.167Z,38.23
2019-04-29T03:45:59.934Z,35.93
2019-04-29T03:48:29.691Z,35.67
2019-04-29T03:50:59.117Z,36.17
2019-04-29T03:53:28.898Z,35.10
2019-04-29T03:55:58.474Z,36.33
2019-04-29T03:58:27.839Z,35.90
2019-04-29T04:01:04.771Z,35.80
2019-04-29T04:03:42.598Z,35.77
2019-04-29T04:06:49.338Z,35.53
2019-04-29T04:09:24.600Z,34.77
2019-04-29T04:11:54.248Z,35.77
2019-04-29T04:14:23.626Z,37.50
2019-04-29T04:17:20.572Z,36.87
2019-04-29T04:19:50.176Z,34.50
2019-04-29T04:22:19.680Z,37.27
2019-04-29T04:24:52.252Z,34.27
2019-04-29T04:27:21.683Z,36.07
2019-04-29T04:29:51.359Z,35.30
2019-04-29T04:32:20.967Z,33.90
2019-04-29T04:34:50.400Z,36.33
2019-04-29T04:37:19.926Z,36.33
2019-04-29T04:39:49.412Z,35.70
2019-04-29T04:42:18.965Z,35.83
2019-04-29T04:44:49.341Z,36.03
2019-04-29T04:47:20.369Z,34.87
2019-04-29T04:49:49.786Z,34.90
2019-04-29T04:52:19.465Z,33.40
2019-04-29T04:54:50.905Z,32.23
2019-04-29T04:57:20.539Z,33.07
2019-04-29T04:59:50.128Z,33.50
2019-04-29T05:02:19.727Z,33.10
2019-04-29T05:04:49.182Z,33.73
2019-04-29T05:07:18.838Z,34.30
2019-04-29T05:09:48.430Z,34.37
2019-04-29T05:12:18.053Z,32.77
2019-04-29T05:14:47.482Z,31.47
2019-04-29T05:17:17.158Z,33.27
2019-04-29T05:19:46.654Z,32.97
2019-04-29T05:22:16.204Z,31.50
2019-04-29T05:24:45.892Z,32.57
2019-04-29T05:27:15.337Z,32.43
2019-04-29T05:29:44.691Z,30.00
2019-04-29T05:32:14.388Z,30.17
2019-04-29T05:34:48.025Z,28.73
2019-04-29T05:37:27.096Z,28.10
2019-04-29T05:39:56.447Z,31.97
2019-04-29T05:42:26.039Z,30.00
2019-04-29T05:45:20.545Z,29.67
2019-04-29T05:47:58.455Z,29.60
2019-04-29T05:50:47.635Z,30.23
2019-04-29T05:53:21.908Z,29.27
2019-04-29T05:55:52.684Z,31.10
2019-04-29T05:58:22.334Z,28.80
2019-04-29T06:01:19.871Z,28.90
2019-04-29T06:03:49.403Z,28.40
2019-04-29T06:06:18.843Z,27.63
2019-04-29T06:08:48.419Z,29.07
2019-04-29T06:11:17.947Z,28.80
2019-04-29T06:13:47.527Z,28.73
2019-04-29T06:16:20.870Z,27.70
2019-04-29T06:18:48.271Z,27.37
2019-04-29T06:21:17.667Z,26.43
2019-04-29T06:23:47.362Z,28.73
2019-04-29T06:26:16.805Z,26.97
2019-04-29T06:28:46.398Z,28.07
2019-04-29T06:31:16.012Z,27.10
2019-04-29T06:33:45.467Z,28.33
2019-04-29T06:36:15.226Z,27.87
2019-04-29T06:38:44.823Z,26.87
2019-04-29T06:41:14.426Z,27.93
2019-04-29T06:43:44.138Z,26.23
2019-04-29T06:46:13.670Z,26.40
2019-04-29T06:48:43.355Z,28.30
2019-04-29T06:51:12.950Z,27.73
2019-04-29T06:53:42.778Z,26.20
2019-04-29T06:56:12.296Z,26.10
2019-04-29T06:58:41.875Z,26.63
2019-04-29T07:01:11.339Z,25.83
2019-04-29T07:03:40.706Z,27.70
2019-04-29T07:06:10.254Z,27.00
2019-04-29T07:08:39.851Z,26.23
2019-04-29T07:11:09.418Z,27.20
2019-04-29T07:13:39.003Z,26.77
2019-04-29T07:16:08.423Z,26.87
2019-04-29T07:18:40.410Z,25.57
2019-04-29T07:21:11.857Z,24.10
2019-04-29T07:23:40.360Z,25.47
2019-04-29T07:26:09.806Z,25.10
2019-04-29T07:28:39.424Z,24.03
2019-04-29T07:31:10.266Z,25.13
2019-04-29T07:33:39.994Z,25.20
2019-04-29T07:36:11.320Z,25.10
2019-04-29T07:38:41.953Z,25.47
2019-04-29T07:41:14.311Z,26.90
2019-04-29T07:43:44.217Z,24.07
2019-04-29T07:46:25.667Z,25.77
2019-04-29T07:49:01.852Z,24.20
2019-04-29T07:51:26.310Z,26.07
2019-04-29T07:53:55.749Z,24.73
2019-04-29T07:56:25.184Z,25.17
2019-04-29T07:58:58.607Z,24.40
2019-04-29T08:01:26.394Z,24.90
2019-04-29T08:03:56.236Z,24.00
2019-04-29T08:06:26.028Z,25.07
2019-04-29T08:08:58.809Z,25.83
2019-04-29T08:11:26.763Z,26.67
2019-04-29T08:13:57.907Z,25.93
2019-04-29T08:16:27.314Z,25.83
2019-04-29T08:18:56.662Z,25.73
2019-04-29T08:21:26.170Z,25.03
2019-04-29T08:23:57.172Z,24.67
2019-04-29T08:26:26.730Z,24.80
2019-04-29T08:29:00.308Z,26.90
2019-04-29T08:31:27.470Z,26.27
2019-04-29T08:33:57.033Z,26.03
2019-04-29T08:36:26.522Z,25.43
2019-04-29T08:39:07.928Z,26.47
2019-04-29T08:41:29.853Z,26.40
2019-04-29T08:44:17.292Z,29.00
2019-04-29T08:46:54.562Z,25.70
2019-04-29T08:49:24.034Z,25.10
2019-04-29T08:51:53.502Z,25.67
2019-04-29T08:54:22.987Z,25.80
2019-04-29T08:57:02.781Z,25.37
2019-04-29T08:59:24.412Z,25.03
2019-04-29T09:01:54.330Z,25.00
2019-04-29T09:04:23.673Z,24.27
2019-04-29T09:06:53.105Z,23.47
2019-04-29T09:09:29.319Z,24.00
2019-04-29T09:11:54.110Z,24.07
2019-04-29T09:14:23.542Z,23.67
2019-04-29T09:16:53.179Z,22.77
2019-04-29T09:19:22.711Z,22.95
2019-04-29T09:21:56.181Z,22.90
